sensor_id;sensor_type;location;lat;lon;timestamp;P1;P2;P0
63305;PMS5003;50735;52.060;1.248;2023-07-20T00:02:18;2;2;
63305;PMS5003;50735;52.060;1.248;2023-07-20T00:04:49;3;3;
63305;PMS5003;50735;52.060;1.248;2023-07-20T00:07:21;3;3;
63305;PMS5003;50735;52.060;1.248;2023-07-20T00:09:53;3;3;
63305;PMS5003;50735;52.060;1.248;2023-07-20T00:12:25;4;4;
63305;PMS5003;50735;52.060;1.248;2023-07-20T00:14:57;5;4;
63305;PMS5003;50735;52.060;1.248;2023-07-20T00:17:29;5;4;
63305;PMS5003;50735;52.060;1.248;2023-07-20T00:20:00;3;2;
63305;PMS5003;50735;52.060;1.248;2023-07-20T00:22:32;6;3;
63305;PMS5003;50735;52.060;1.248;2023-07-20T00:25:04;2;2;
63305;PMS5003;50735;52.060;1.248;2023-07-20T00:27:36;3;2;
63305;PMS5003;50735;52.060;1.248;2023-07-20T00:30:09;2;2;
63305;PMS5003;50735;52.060;1.248;2023-07-20T00:32:41;3;2;
63305;PMS5003;50735;52.060;1.248;2023-07-20T00:35:14;1;1;
63305;PMS5003;50735;52.060;1.248;2023-07-20T00:37:45;2;2;
63305;PMS5003;50735;52.060;1.248;2023-07-20T00:40:17;3;3;
63305;PMS5003;50735;52.060;1.248;2023-07-20T00:42:49;3;3;
63305;PMS5003;50735;52.060;1.248;2023-07-20T00:45:21;2;2;
63305;PMS5003;50735;52.060;1.248;2023-07-20T00:47:53;4;4;
63305;PMS5003;50735;52.060;1.248;2023-07-20T00:50:24;8;5;
63305;PMS5003;50735;52.060;1.248;2023-07-20T00:52:57;3;3;
63305;PMS5003;50735;52.060;1.248;2023-07-20T00:55:30;2;2;
63305;PMS5003;50735;52.060;1.248;2023-07-20T00:58:01;4;3;
63305;PMS5003;50735;52.060;1.248;2023-07-20T01:00:34;3;3;
63305;PMS5003;50735;52.060;1.248;2023-07-20T01:03:06;2;2;
63305;PMS5003;50735;52.060;1.248;2023-07-20T01:05:40;3;2;
63305;PMS5003;50735;52.060;1.248;2023-07-20T01:08:21;6;3;
63305;PMS5003;50735;52.060;1.248;2023-07-20T01:11:01;2;2;
63305;PMS5003;50735;52.060;1.248;2023-07-20T01:13:40;2;2;
63305;PMS5003;50735;52.060;1.248;2023-07-20T01:16:14;2;2;
63305;PMS5003;50735;52.060;1.248;2023-07-20T01:18:46;3;3;
63305;PMS5003;50735;52.060;1.248;2023-07-20T01:21:22;3;2;
63305;PMS5003;50735;52.060;1.248;2023-07-20T01:24:05;2;2;
63305;PMS5003;50735;52.060;1.248;2023-07-20T01:27:16;4;4;
63305;PMS5003;50735;52.060;1.248;2023-07-20T01:30:14;4;4;
63305;PMS5003;50735;52.060;1.248;2023-07-20T01:32:55;2;2;
63305;PMS5003;50735;52.060;1.248;2023-07-20T01:35:29;5;4;
63305;PMS5003;50735;52.060;1.248;2023-07-20T01:38:03;3;3;
63305;PMS5003;50735;52.060;1.248;2023-07-20T01:40:37;3;3;
63305;PMS5003;50735;52.060;1.248;2023-07-20T01:43:11;3;3;
63305;PMS5003;50735;52.060;1.248;2023-07-20T01:45:43;4;4;
63305;PMS5003;50735;52.060;1.248;2023-07-20T01:48:16;3;3;
63305;PMS5003;50735;52.060;1.248;2023-07-20T01:50:48;3;3;
63305;PMS5003;50735;52.060;1.248;2023-07-20T01:53:20;7;4;
63305;PMS5003;50735;52.060;1.248;2023-07-20T01:55:52;5;5;
63305;PMS5003;50735;52.060;1.248;2023-07-20T01:58:24;6;4;
63305;PMS5003;50735;52.060;1.248;2023-07-20T02:00:56;4;4;
63305;PMS5003;50735;52.060;1.248;2023-07-20T02:03:27;4;4;
63305;PMS5003;50735;52.060;1.248;2023-07-20T02:05:59;5;5;
63305;PMS5003;50735;52.060;1.248;2023-07-20T02:08:31;8;6;
63305;PMS5003;50735;52.060;1.248;2023-07-20T02:11:03;8;6;
63305;PMS5003;50735;52.060;1.248;2023-07-20T02:13:35;6;6;
63305;PMS5003;50735;52.060;1.248;2023-07-20T02:16:07;5;5;
63305;PMS5003;50735;52.060;1.248;2023-07-20T02:18:38;5;4;
63305;PMS5003;50735;52.060;1.248;2023-07-20T02:21:10;6;5;
63305;PMS5003;50735;52.060;1.248;2023-07-20T02:23:42;6;5;
63305;PMS5003;50735;52.060;1.248;2023-07-20T02:26:14;6;6;
63305;PMS5003;50735;52.060;1.248;2023-07-20T02:28:46;5;5;
63305;PMS5003;50735;52.060;1.248;2023-07-20T02:31:18;7;7;
63305;PMS5003;50735;52.060;1.248;2023-07-20T02:33:49;7;6;
63305;PMS5003;50735;52.060;1.248;2023-07-20T02:36:21;5;5;
63305;PMS5003;50735;52.060;1.248;2023-07-20T02:38:53;6;6;
63305;PMS5003;50735;52.060;1.248;2023-07-20T02:41:24;8;8;
63305;PMS5003;50735;52.060;1.248;2023-07-20T02:43:56;5;5;
63305;PMS5003;50735;52.060;1.248;2023-07-20T02:46:28;5;5;
63305;PMS5003;50735;52.060;1.248;2023-07-20T02:49:00;5;5;
63305;PMS5003;50735;52.060;1.248;2023-07-20T02:51:32;6;6;
63305;PMS5003;50735;52.060;1.248;2023-07-20T02:54:04;7;5;
63305;PMS5003;50735;52.060;1.248;2023-07-20T02:56:35;5;5;
63305;PMS5003;50735;52.060;1.248;2023-07-20T02:59:08;7;6;
63305;PMS5003;50735;52.060;1.248;2023-07-20T03:01:40;5;5;
63305;PMS5003;50735;52.060;1.248;2023-07-20T03:04:12;6;6;
63305;PMS5003;50735;52.060;1.248;2023-07-20T03:06:44;5;5;
63305;PMS5003;50735;52.060;1.248;2023-07-20T03:09:16;4;4;
63305;PMS5003;50735;52.060;1.248;2023-07-20T03:11:48;4;4;
63305;PMS5003;50735;52.060;1.248;2023-07-20T03:14:21;5;5;
63305;PMS5003;50735;52.060;1.248;2023-07-20T03:16:53;7;7;
63305;PMS5003;50735;52.060;1.248;2023-07-20T03:19:25;7;5;
63305;PMS5003;50735;52.060;1.248;2023-07-20T03:21:56;7;6;
63305;PMS5003;50735;52.060;1.248;2023-07-20T03:24:28;7;7;
63305;PMS5003;50735;52.060;1.248;2023-07-20T03:27:00;8;8;
63305;PMS5003;50735;52.060;1.248;2023-07-20T03:29:32;6;6;
63305;PMS5003;50735;52.060;1.248;2023-07-20T03:32:04;6;6;
63305;PMS5003;50735;52.060;1.248;2023-07-20T03:34:36;7;7;
63305;PMS5003;50735;52.060;1.248;2023-07-20T03:37:08;6;6;
63305;PMS5003;50735;52.060;1.248;2023-07-20T03:39:40;6;6;
63305;PMS5003;50735;52.060;1.248;2023-07-20T03:42:12;6;6;
63305;PMS5003;50735;52.060;1.248;2023-07-20T03:44:44;8;8;
63305;PMS5003;50735;52.060;1.248;2023-07-20T03:47:16;8;6;
63305;PMS5003;50735;52.060;1.248;2023-07-20T03:49:48;5;5;
63305;PMS5003;50735;52.060;1.248;2023-07-20T03:52:19;6;6;
63305;PMS5003;50735;52.060;1.248;2023-07-20T03:54:51;8;7;
63305;PMS5003;50735;52.060;1.248;2023-07-20T03:57:23;8;8;
63305;PMS5003;50735;52.060;1.248;2023-07-20T03:59:55;8;7;
63305;PMS5003;50735;52.060;1.248;2023-07-20T04:02:27;7;6;
63305;PMS5003;50735;52.060;1.248;2023-07-20T04:04:58;5;5;
63305;PMS5003;50735;52.060;1.248;2023-07-20T04:07:30;8;8;
63305;PMS5003;50735;52.060;1.248;2023-07-20T04:10:02;7;6;
63305;PMS5003;50735;52.060;1.248;2023-07-20T04:12:35;9;5;
63305;PMS5003;50735;52.060;1.248;2023-07-20T04:15:08;7;6;
63305;PMS5003;50735;52.060;1.248;2023-07-20T04:17:40;7;6;
63305;PMS5003;50735;52.060;1.248;2023-07-20T04:20:12;6;6;
63305;PMS5003;50735;52.060;1.248;2023-07-20T04:22:44;9;7;
63305;PMS5003;50735;52.060;1.248;2023-07-20T04:25:16;9;7;
63305;PMS5003;50735;52.060;1.248;2023-07-20T04:27:48;10;8;
63305;PMS5003;50735;52.060;1.248;2023-07-20T04:30:20;6;6;
63305;PMS5003;50735;52.060;1.248;2023-07-20T04:32:53;8;8;
63305;PMS5003;50735;52.060;1.248;2023-07-20T04:35:56;8;8;
63305;PMS5003;50735;52.060;1.248;2023-07-20T04:38:29;8;8;
63305;PMS5003;50735;52.060;1.248;2023-07-20T04:41:00;12;10;
63305;PMS5003;50735;52.060;1.248;2023-07-20T04:43:32;9;7;
63305;PMS5003;50735;52.060;1.248;2023-07-20T04:46:04;8;6;
63305;PMS5003;50735;52.060;1.248;2023-07-20T04:48:36;6;6;
63305;PMS5003;50735;52.060;1.248;2023-07-20T04:51:09;10;10;
63305;PMS5003;50735;52.060;1.248;2023-07-20T04:53:40;7;7;
63305;PMS5003;50735;52.060;1.248;2023-07-20T04:56:12;6;6;
63305;PMS5003;50735;52.060;1.248;2023-07-20T04:58:44;7;7;
63305;PMS5003;50735;52.060;1.248;2023-07-20T05:01:16;7;7;
63305;PMS5003;50735;52.060;1.248;2023-07-20T05:03:48;8;8;
63305;PMS5003;50735;52.060;1.248;2023-07-20T05:06:19;9;7;
63305;PMS5003;50735;52.060;1.248;2023-07-20T05:08:51;7;7;
63305;PMS5003;50735;52.060;1.248;2023-07-20T05:11:23;6;6;
63305;PMS5003;50735;52.060;1.248;2023-07-20T05:13:55;7;7;
63305;PMS5003;50735;52.060;1.248;2023-07-20T05:16:26;12;9;
63305;PMS5003;50735;52.060;1.248;2023-07-20T05:18:58;7;7;
63305;PMS5003;50735;52.060;1.248;2023-07-20T05:21:30;10;9;
63305;PMS5003;50735;52.060;1.248;2023-07-20T05:24:02;10;9;
63305;PMS5003;50735;52.060;1.248;2023-07-20T05:26:34;14;12;
63305;PMS5003;50735;52.060;1.248;2023-07-20T05:29:06;9;8;
63305;PMS5003;50735;52.060;1.248;2023-07-20T05:31:38;8;8;
63305;PMS5003;50735;52.060;1.248;2023-07-20T05:34:09;8;8;
63305;PMS5003;50735;52.060;1.248;2023-07-20T05:36:41;10;10;
63305;PMS5003;50735;52.060;1.248;2023-07-20T05:39:13;11;10;
63305;PMS5003;50735;52.060;1.248;2023-07-20T05:41:44;9;7;
63305;PMS5003;50735;52.060;1.248;2023-07-20T05:44:16;10;10;
63305;PMS5003;50735;52.060;1.248;2023-07-20T05:46:48;11;10;
63305;PMS5003;50735;52.060;1.248;2023-07-20T05:49:20;16;16;
63305;PMS5003;50735;52.060;1.248;2023-07-20T05:51:52;13;11;
63305;PMS5003;50735;52.060;1.248;2023-07-20T05:54:24;16;12;
63305;PMS5003;50735;52.060;1.248;2023-07-20T05:56:56;12;12;
63305;PMS5003;50735;52.060;1.248;2023-07-20T05:59:28;17;16;
63305;PMS5003;50735;52.060;1.248;2023-07-20T06:01:59;8;8;
63305;PMS5003;50735;52.060;1.248;2023-07-20T06:04:31;10;10;
63305;PMS5003;50735;52.060;1.248;2023-07-20T06:07:03;11;11;
63305;PMS5003;50735;52.060;1.248;2023-07-20T06:09:35;11;10;
63305;PMS5003;50735;52.060;1.248;2023-07-20T06:12:08;10;10;
63305;PMS5003;50735;52.060;1.248;2023-07-20T06:14:40;11;11;
63305;PMS5003;50735;52.060;1.248;2023-07-20T06:17:11;10;10;
63305;PMS5003;50735;52.060;1.248;2023-07-20T06:19:43;13;9;
63305;PMS5003;50735;52.060;1.248;2023-07-20T06:22:15;10;10;
63305;PMS5003;50735;52.060;1.248;2023-07-20T06:24:46;11;11;
63305;PMS5003;50735;52.060;1.248;2023-07-20T06:27:18;9;9;
63305;PMS5003;50735;52.060;1.248;2023-07-20T06:29:50;10;10;
63305;PMS5003;50735;52.060;1.248;2023-07-20T06:32:22;12;9;
63305;PMS5003;50735;52.060;1.248;2023-07-20T06:34:54;9;8;
63305;PMS5003;50735;52.060;1.248;2023-07-20T06:37:26;10;9;
63305;PMS5003;50735;52.060;1.248;2023-07-20T06:39:58;8;8;
63305;PMS5003;50735;52.060;1.248;2023-07-20T06:42:30;9;9;
63305;PMS5003;50735;52.060;1.248;2023-07-20T06:45:02;5;5;
63305;PMS5003;50735;52.060;1.248;2023-07-20T06:47:34;6;6;
63305;PMS5003;50735;52.060;1.248;2023-07-20T06:50:09;6;5;
63305;PMS5003;50735;52.060;1.248;2023-07-20T06:52:41;6;6;
63305;PMS5003;50735;52.060;1.248;2023-07-20T06:55:13;9;7;
63305;PMS5003;50735;52.060;1.248;2023-07-20T06:57:45;5;5;
63305;PMS5003;50735;52.060;1.248;2023-07-20T07:00:17;8;8;
63305;PMS5003;50735;52.060;1.248;2023-07-20T07:02:49;5;5;
63305;PMS5003;50735;52.060;1.248;2023-07-20T07:05:21;11;8;
63305;PMS5003;50735;52.060;1.248;2023-07-20T07:07:53;7;7;
63305;PMS5003;50735;52.060;1.248;2023-07-20T07:10:25;6;4;
63305;PMS5003;50735;52.060;1.248;2023-07-20T07:12:57;8;8;
63305;PMS5003;50735;52.060;1.248;2023-07-20T07:15:28;12;10;
63305;PMS5003;50735;52.060;1.248;2023-07-20T07:18:00;8;7;
63305;PMS5003;50735;52.060;1.248;2023-07-20T07:20:32;9;8;
63305;PMS5003;50735;52.060;1.248;2023-07-20T07:23:04;11;8;
63305;PMS5003;50735;52.060;1.248;2023-07-20T07:25:35;10;8;
63305;PMS5003;50735;52.060;1.248;2023-07-20T07:28:07;8;7;
63305;PMS5003;50735;52.060;1.248;2023-07-20T07:30:39;9;8;
63305;PMS5003;50735;52.060;1.248;2023-07-20T07:33:11;7;7;
63305;PMS5003;50735;52.060;1.248;2023-07-20T07:35:42;6;6;
63305;PMS5003;50735;52.060;1.248;2023-07-20T07:38:15;8;8;
63305;PMS5003;50735;52.060;1.248;2023-07-20T07:40:47;9;7;
63305;PMS5003;50735;52.060;1.248;2023-07-20T07:43:18;8;8;
63305;PMS5003;50735;52.060;1.248;2023-07-20T07:45:53;8;8;
63305;PMS5003;50735;52.060;1.248;2023-07-20T07:48:26;6;6;
63305;PMS5003;50735;52.060;1.248;2023-07-20T07:50:58;6;6;
63305;PMS5003;50735;52.060;1.248;2023-07-20T07:53:30;8;8;
63305;PMS5003;50735;52.060;1.248;2023-07-20T07:56:02;10;8;
63305;PMS5003;50735;52.060;1.248;2023-07-20T07:58:33;15;6;
63305;PMS5003;50735;52.060;1.248;2023-07-20T08:01:05;5;5;
63305;PMS5003;50735;52.060;1.248;2023-07-20T08:03:37;8;8;
63305;PMS5003;50735;52.060;1.248;2023-07-20T08:06:09;6;6;
63305;PMS5003;50735;52.060;1.248;2023-07-20T08:08:40;6;6;
63305;PMS5003;50735;52.060;1.248;2023-07-20T08:11:13;6;6;
63305;PMS5003;50735;52.060;1.248;2023-07-20T08:13:45;6;6;
63305;PMS5003;50735;52.060;1.248;2023-07-20T08:16:16;7;6;
63305;PMS5003;50735;52.060;1.248;2023-07-20T08:18:48;6;6;
63305;PMS5003;50735;52.060;1.248;2023-07-20T08:21:21;5;4;
63305;PMS5003;50735;52.060;1.248;2023-07-20T08:23:53;7;6;
63305;PMS5003;50735;52.060;1.248;2023-07-20T08:26:24;7;7;
63305;PMS5003;50735;52.060;1.248;2023-07-20T08:28:56;7;5;
63305;PMS5003;50735;52.060;1.248;2023-07-20T08:31:28;6;6;
63305;PMS5003;50735;52.060;1.248;2023-07-20T08:34:00;5;5;
63305;PMS5003;50735;52.060;1.248;2023-07-20T08:36:31;5;5;
63305;PMS5003;50735;52.060;1.248;2023-07-20T08:39:03;6;6;
63305;PMS5003;50735;52.060;1.248;2023-07-20T08:41:35;5;5;
63305;PMS5003;50735;52.060;1.248;2023-07-20T08:44:07;4;4;
63305;PMS5003;50735;52.060;1.248;2023-07-20T08:46:40;4;4;
63305;PMS5003;50735;52.060;1.248;2023-07-20T08:49:13;8;5;
63305;PMS5003;50735;52.060;1.248;2023-07-20T08:51:47;4;4;
63305;PMS5003;50735;52.060;1.248;2023-07-20T08:54:20;3;3;
63305;PMS5003;50735;52.060;1.248;2023-07-20T08:56:51;6;3;
63305;PMS5003;50735;52.060;1.248;2023-07-20T08:59:25;2;2;
63305;PMS5003;50735;52.060;1.248;2023-07-20T09:01:58;2;2;
63305;PMS5003;50735;52.060;1.248;2023-07-20T09:04:31;4;4;
63305;PMS5003;50735;52.060;1.248;2023-07-20T09:07:03;5;3;
63305;PMS5003;50735;52.060;1.248;2023-07-20T09:09:39;4;2;
63305;PMS5003;50735;52.060;1.248;2023-07-20T09:12:13;4;3;
63305;PMS5003;50735;52.060;1.248;2023-07-20T09:14:45;2;2;
63305;PMS5003;50735;52.060;1.248;2023-07-20T09:17:16;2;2;
63305;PMS5003;50735;52.060;1.248;2023-07-20T09:19:48;3;3;
63305;PMS5003;50735;52.060;1.248;2023-07-20T09:22:20;2;2;
63305;PMS5003;50735;52.060;1.248;2023-07-20T09:24:52;3;3;
63305;PMS5003;50735;52.060;1.248;2023-07-20T09:27:29;3;2;
63305;PMS5003;50735;52.060;1.248;2023-07-20T09:30:07;2;2;
63305;PMS5003;50735;52.060;1.248;2023-07-20T09:32:40;4;4;
63305;PMS5003;50735;52.060;1.248;2023-07-20T09:35:13;2;2;
63305;PMS5003;50735;52.060;1.248;2023-07-20T09:37:46;4;4;
63305;PMS5003;50735;52.060;1.248;2023-07-20T09:40:18;4;4;
63305;PMS5003;50735;52.060;1.248;2023-07-20T09:42:52;3;3;
63305;PMS5003;50735;52.060;1.248;2023-07-20T09:45:27;3;3;
63305;PMS5003;50735;52.060;1.248;2023-07-20T09:48:03;3;3;
63305;PMS5003;50735;52.060;1.248;2023-07-20T09:50:39;3;3;
63305;PMS5003;50735;52.060;1.248;2023-07-20T09:53:11;4;4;
63305;PMS5003;50735;52.060;1.248;2023-07-20T09:55:44;2;2;
63305;PMS5003;50735;52.060;1.248;2023-07-20T09:58:16;3;3;
63305;PMS5003;50735;52.060;1.248;2023-07-20T10:00:50;2;2;
63305;PMS5003;50735;52.060;1.248;2023-07-20T10:03:25;2;2;
63305;PMS5003;50735;52.060;1.248;2023-07-20T10:06:02;4;4;
63305;PMS5003;50735;52.060;1.248;2023-07-20T10:08:38;5;5;
63305;PMS5003;50735;52.060;1.248;2023-07-20T10:11:11;4;4;
63305;PMS5003;50735;52.060;1.248;2023-07-20T10:13:45;4;4;
63305;PMS5003;50735;52.060;1.248;2023-07-20T10:16:22;6;5;
63305;PMS5003;50735;52.060;1.248;2023-07-20T10:19:01;4;4;
63305;PMS5003;50735;52.060;1.248;2023-07-20T10:21:37;4;3;
63305;PMS5003;50735;52.060;1.248;2023-07-20T10:24:13;3;3;
63305;PMS5003;50735;52.060;1.248;2023-07-20T10:26:47;5;5;
63305;PMS5003;50735;52.060;1.248;2023-07-20T10:29:19;4;4;
63305;PMS5003;50735;52.060;1.248;2023-07-20T10:31:52;4;3;
63305;PMS5003;50735;52.060;1.248;2023-07-20T10:34:24;3;3;
63305;PMS5003;50735;52.060;1.248;2023-07-20T10:36:56;3;3;
63305;PMS5003;50735;52.060;1.248;2023-07-20T10:39:30;5;4;
63305;PMS5003;50735;52.060;1.248;2023-07-20T10:42:03;5;5;
63305;PMS5003;50735;52.060;1.248;2023-07-20T10:44:38;4;4;
63305;PMS5003;50735;52.060;1.248;2023-07-20T10:47:11;3;3;
63305;PMS5003;50735;52.060;1.248;2023-07-20T10:50:02;4;4;
63305;PMS5003;50735;52.060;1.248;2023-07-20T10:52:36;5;3;
63305;PMS5003;50735;52.060;1.248;2023-07-20T10:55:14;4;4;
63305;PMS5003;50735;52.060;1.248;2023-07-20T10:57:59;4;3;
63305;PMS5003;50735;52.060;1.248;2023-07-20T11:00:38;3;3;
63305;PMS5003;50735;52.060;1.248;2023-07-20T11:03:27;2;2;
63305;PMS5003;50735;52.060;1.248;2023-07-20T11:09:04;4;4;
63305;PMS5003;50735;52.060;1.248;2023-07-20T11:11:38;5;3;
63305;PMS5003;50735;52.060;1.248;2023-07-20T11:14:10;2;2;
63305;PMS5003;50735;52.060;1.248;2023-07-20T11:16:52;4;3;
63305;PMS5003;50735;52.060;1.248;2023-07-20T11:19:25;3;3;
63305;PMS5003;50735;52.060;1.248;2023-07-20T11:21:58;5;3;
63305;PMS5003;50735;52.060;1.248;2023-07-20T11:24:30;6;6;
63305;PMS5003;50735;52.060;1.248;2023-07-20T11:27:03;3;3;
63305;PMS5003;50735;52.060;1.248;2023-07-20T11:29:37;2;2;
63305;PMS5003;50735;52.060;1.248;2023-07-20T11:32:09;3;3;
63305;PMS5003;50735;52.060;1.248;2023-07-20T11:34:40;3;3;
63305;PMS5003;50735;52.060;1.248;2023-07-20T11:37:12;4;3;
63305;PMS5003;50735;52.060;1.248;2023-07-20T11:39:44;3;3;
63305;PMS5003;50735;52.060;1.248;2023-07-20T11:42:17;2;2;
63305;PMS5003;50735;52.060;1.248;2023-07-20T11:44:51;3;3;
63305;PMS5003;50735;52.060;1.248;2023-07-20T11:47:23;3;3;
63305;PMS5003;50735;52.060;1.248;2023-07-20T11:50:02;3;3;
63305;PMS5003;50735;52.060;1.248;2023-07-20T11:52:35;3;3;
63305;PMS5003;50735;52.060;1.248;2023-07-20T11:55:08;2;2;
63305;PMS5003;50735;52.060;1.248;2023-07-20T11:57:41;2;2;
63305;PMS5003;50735;52.060;1.248;2023-07-20T12:00:31;5;4;
63305;PMS5003;50735;52.060;1.248;2023-07-20T12:03:04;3;3;
63305;PMS5003;50735;52.060;1.248;2023-07-20T12:05:37;2;2;
63305;PMS5003;50735;52.060;1.248;2023-07-20T12:08:10;4;4;
63305;PMS5003;50735;52.060;1.248;2023-07-20T12:10:41;3;3;
63305;PMS5003;50735;52.060;1.248;2023-07-20T12:13:13;2;2;
63305;PMS5003;50735;52.060;1.248;2023-07-20T12:15:45;5;4;
63305;PMS5003;50735;52.060;1.248;2023-07-20T12:18:16;3;3;
63305;PMS5003;50735;52.060;1.248;2023-07-20T12:20:48;3;3;
63305;PMS5003;50735;52.060;1.248;2023-07-20T12:23:34;3;3;
63305;PMS5003;50735;52.060;1.248;2023-07-20T12:26:08;4;3;
63305;PMS5003;50735;52.060;1.248;2023-07-20T12:28:41;4;4;
63305;PMS5003;50735;52.060;1.248;2023-07-20T12:31:13;4;4;
63305;PMS5003;50735;52.060;1.248;2023-07-20T12:33:45;4;4;
63305;PMS5003;50735;52.060;1.248;2023-07-20T12:36:17;4;4;
63305;PMS5003;50735;52.060;1.248;2023-07-20T12:38:50;4;4;
63305;PMS5003;50735;52.060;1.248;2023-07-20T12:41:21;4;4;
63305;PMS5003;50735;52.060;1.248;2023-07-20T12:43:53;3;3;
63305;PMS5003;50735;52.060;1.248;2023-07-20T12:46:26;2;2;
63305;PMS5003;50735;52.060;1.248;2023-07-20T12:48:57;3;3;
63305;PMS5003;50735;52.060;1.248;2023-07-20T12:51:29;2;2;
63305;PMS5003;50735;52.060;1.248;2023-07-20T12:54:01;3;3;
63305;PMS5003;50735;52.060;1.248;2023-07-20T12:56:33;1;1;
63305;PMS5003;50735;52.060;1.248;2023-07-20T12:59:04;2;2;
63305;PMS5003;50735;52.060;1.248;2023-07-20T13:01:36;3;3;
63305;PMS5003;50735;52.060;1.248;2023-07-20T13:04:08;2;2;
63305;PMS5003;50735;52.060;1.248;2023-07-20T13:06:39;2;2;
63305;PMS5003;50735;52.060;1.248;2023-07-20T13:09:11;7;4;
63305;PMS5003;50735;52.060;1.248;2023-07-20T13:11:43;2;2;
63305;PMS5003;50735;52.060;1.248;2023-07-20T13:14:15;8;6;
63305;PMS5003;50735;52.060;1.248;2023-07-20T13:16:46;20;19;
63305;PMS5003;50735;52.060;1.248;2023-07-20T13:19:18;16;14;
63305;PMS5003;50735;52.060;1.248;2023-07-20T13:21:50;13;8;
63305;PMS5003;50735;52.060;1.248;2023-07-20T13:24:21;5;5;
63305;PMS5003;50735;52.060;1.248;2023-07-20T13:26:53;3;3;
63305;PMS5003;50735;52.060;1.248;2023-07-20T13:29:25;4;4;
63305;PMS5003;50735;52.060;1.248;2023-07-20T13:31:57;3;3;
63305;PMS5003;50735;52.060;1.248;2023-07-20T13:34:29;6;6;
63305;PMS5003;50735;52.060;1.248;2023-07-20T13:37:01;7;5;
63305;PMS5003;50735;52.060;1.248;2023-07-20T13:39:33;7;7;
63305;PMS5003;50735;52.060;1.248;2023-07-20T13:42:05;6;6;
63305;PMS5003;50735;52.060;1.248;2023-07-20T13:44:37;8;8;
63305;PMS5003;50735;52.060;1.248;2023-07-20T13:47:10;8;8;
63305;PMS5003;50735;52.060;1.248;2023-07-20T13:49:42;11;11;
63305;PMS5003;50735;52.060;1.248;2023-07-20T13:52:14;7;7;
63305;PMS5003;50735;52.060;1.248;2023-07-20T13:54:46;11;8;
63305;PMS5003;50735;52.060;1.248;2023-07-20T13:57:18;8;8;
63305;PMS5003;50735;52.060;1.248;2023-07-20T13:59:50;22;21;
63305;PMS5003;50735;52.060;1.248;2023-07-20T14:02:22;16;15;
63305;PMS5003;50735;52.060;1.248;2023-07-20T14:04:53;8;8;
63305;PMS5003;50735;52.060;1.248;2023-07-20T14:07:25;10;7;
63305;PMS5003;50735;52.060;1.248;2023-07-20T14:09:57;5;4;
63305;PMS5003;50735;52.060;1.248;2023-07-20T14:12:29;4;4;
63305;PMS5003;50735;52.060;1.248;2023-07-20T14:15:00;4;4;
63305;PMS5003;50735;52.060;1.248;2023-07-20T14:17:32;3;3;
63305;PMS5003;50735;52.060;1.248;2023-07-20T14:20:04;3;3;
63305;PMS5003;50735;52.060;1.248;2023-07-20T14:22:37;7;6;
63305;PMS5003;50735;52.060;1.248;2023-07-20T14:25:09;10;6;
63305;PMS5003;50735;52.060;1.248;2023-07-20T14:27:41;12;11;
63305;PMS5003;50735;52.060;1.248;2023-07-20T14:30:12;17;17;
63305;PMS5003;50735;52.060;1.248;2023-07-20T14:32:44;7;5;
63305;PMS5003;50735;52.060;1.248;2023-07-20T14:35:16;3;3;
63305;PMS5003;50735;52.060;1.248;2023-07-20T14:37:47;4;4;
63305;PMS5003;50735;52.060;1.248;2023-07-20T14:40:19;4;4;
63305;PMS5003;50735;52.060;1.248;2023-07-20T14:42:51;5;4;
63305;PMS5003;50735;52.060;1.248;2023-07-20T14:45:23;6;6;
63305;PMS5003;50735;52.060;1.248;2023-07-20T14:47:54;4;4;
63305;PMS5003;50735;52.060;1.248;2023-07-20T14:50:26;4;3;
63305;PMS5003;50735;52.060;1.248;2023-07-20T14:52:58;4;4;
63305;PMS5003;50735;52.060;1.248;2023-07-20T14:55:29;3;2;
63305;PMS5003;50735;52.060;1.248;2023-07-20T14:58:01;2;2;
63305;PMS5003;50735;52.060;1.248;2023-07-20T15:00:34;2;2;
63305;PMS5003;50735;52.060;1.248;2023-07-20T15:03:05;3;3;
63305;PMS5003;50735;52.060;1.248;2023-07-20T15:05:37;3;3;
63305;PMS5003;50735;52.060;1.248;2023-07-20T15:08:09;1;1;
63305;PMS5003;50735;52.060;1.248;2023-07-20T15:10:41;2;2;
63305;PMS5003;50735;52.060;1.248;2023-07-20T15:13:13;3;3;
63305;PMS5003;50735;52.060;1.248;2023-07-20T15:15:44;3;3;
63305;PMS5003;50735;52.060;1.248;2023-07-20T15:18:16;5;5;
63305;PMS5003;50735;52.060;1.248;2023-07-20T15:20:47;5;3;
63305;PMS5003;50735;52.060;1.248;2023-07-20T15:23:19;4;3;
63305;PMS5003;50735;52.060;1.248;2023-07-20T15:25:51;3;3;
63305;PMS5003;50735;52.060;1.248;2023-07-20T15:28:23;3;3;
63305;PMS5003;50735;52.060;1.248;2023-07-20T15:30:58;2;1;
63305;PMS5003;50735;52.060;1.248;2023-07-20T15:33:31;3;3;
63305;PMS5003;50735;52.060;1.248;2023-07-20T15:36:04;3;3;
63305;PMS5003;50735;52.060;1.248;2023-07-20T15:38:35;2;2;
63305;PMS5003;50735;52.060;1.248;2023-07-20T15:41:07;3;3;
63305;PMS5003;50735;52.060;1.248;2023-07-20T15:43:39;3;3;
63305;PMS5003;50735;52.060;1.248;2023-07-20T15:46:35;4;3;
63305;PMS5003;50735;52.060;1.248;2023-07-20T15:49:15;1;1;
63305;PMS5003;50735;52.060;1.248;2023-07-20T15:51:47;3;3;
63305;PMS5003;50735;52.060;1.248;2023-07-20T15:54:20;3;3;
63305;PMS5003;50735;52.060;1.248;2023-07-20T15:56:52;4;3;
63305;PMS5003;50735;52.060;1.248;2023-07-20T15:59:24;3;3;
63305;PMS5003;50735;52.060;1.248;2023-07-20T16:01:56;3;3;
63305;PMS5003;50735;52.060;1.248;2023-07-20T16:04:28;3;3;
63305;PMS5003;50735;52.060;1.248;2023-07-20T16:06:59;3;3;
63305;PMS5003;50735;52.060;1.248;2023-07-20T16:09:31;4;4;
63305;PMS5003;50735;52.060;1.248;2023-07-20T16:12:03;6;4;
63305;PMS5003;50735;52.060;1.248;2023-07-20T16:14:37;1;1;
63305;PMS5003;50735;52.060;1.248;2023-07-20T16:17:09;4;4;
63305;PMS5003;50735;52.060;1.248;2023-07-20T16:19:40;3;3;
63305;PMS5003;50735;52.060;1.248;2023-07-20T16:22:12;7;7;
63305;PMS5003;50735;52.060;1.248;2023-07-20T16:24:44;5;5;
63305;PMS5003;50735;52.060;1.248;2023-07-20T16:27:16;3;3;
63305;PMS5003;50735;52.060;1.248;2023-07-20T16:29:47;4;4;
63305;PMS5003;50735;52.060;1.248;2023-07-20T16:32:19;5;3;
63305;PMS5003;50735;52.060;1.248;2023-07-20T16:34:51;3;3;
63305;PMS5003;50735;52.060;1.248;2023-07-20T16:37:23;3;3;
63305;PMS5003;50735;52.060;1.248;2023-07-20T16:39:54;3;3;
63305;PMS5003;50735;52.060;1.248;2023-07-20T16:42:26;3;3;
63305;PMS5003;50735;52.060;1.248;2023-07-20T16:44:58;2;2;
63305;PMS5003;50735;52.060;1.248;2023-07-20T16:47:30;3;3;
63305;PMS5003;50735;52.060;1.248;2023-07-20T16:50:01;2;2;
63305;PMS5003;50735;52.060;1.248;2023-07-20T16:52:34;3;3;
63305;PMS5003;50735;52.060;1.248;2023-07-20T16:55:06;3;3;
63305;PMS5003;50735;52.060;1.248;2023-07-20T16:57:38;5;3;
63305;PMS5003;50735;52.060;1.248;2023-07-20T17:00:10;3;3;
63305;PMS5003;50735;52.060;1.248;2023-07-20T17:02:43;4;4;
63305;PMS5003;50735;52.060;1.248;2023-07-20T17:05:14;4;3;
63305;PMS5003;50735;52.060;1.248;2023-07-20T17:07:46;4;4;
63305;PMS5003;50735;52.060;1.248;2023-07-20T17:10:18;4;4;
63305;PMS5003;50735;52.060;1.248;2023-07-20T17:12:50;3;3;
63305;PMS5003;50735;52.060;1.248;2023-07-20T17:15:21;4;4;
63305;PMS5003;50735;52.060;1.248;2023-07-20T17:17:53;4;4;
63305;PMS5003;50735;52.060;1.248;2023-07-20T17:20:25;5;4;
63305;PMS5003;50735;52.060;1.248;2023-07-20T17:22:57;1;1;
63305;PMS5003;50735;52.060;1.248;2023-07-20T17:25:29;2;2;
63305;PMS5003;50735;52.060;1.248;2023-07-20T17:28:01;5;4;
63305;PMS5003;50735;52.060;1.248;2023-07-20T17:30:33;4;4;